Time;durP1;ratioP1;P1;durP2;ratioP2;P2;SDS_P1;SDS_P2;PMS_P1;PMS_P2;Temp;Humidity;BMP_temperature;BMP_pressure;BME280_temperature;BME280_humidity;BME280_pressure;Samples;Min_cycle;Max_cycle;Signal;HPM_P1;HPM_P2
2023/05/03 00:00:58;;;;;;;13.02;2.60;;;;;;;7.73;100.00;102133.97;5109226;28;20059;-82
2023/05/03 00:03:25;;;;;;;11.55;2.97;;;;;;;7.86;100.00;102163.47;5106293;28;20074;-81
2023/05/03 00:05:52;;;;;;;10.18;3.17;;;;;;;8.12;100.00;102215.56;5106761;28;20443;-81
2023/05/03 00:08:20;;;;;;;6.97;2.47;;;;;;;7.76;100.00;102147.88;5113873;28;20078;-82
2023/05/03 00:10:47;;;;;;;5.57;2.10;;;;;;;8.00;100.00;102174.72;5113141;28;20047;-81
2023/05/03 00:13:14;;;;;;;5.72;1.80;;;;;;;7.68;100.00;102120.09;5107019;28;20047;-81
2023/05/03 00:15:40;;;;;;;7.53;2.40;;;;;;;7.91;100.00;102161.72;5107300;28;20470;-81
2023/05/03 00:18:07;;;;;;;10.57;2.90;;;;;;;7.86;100.00;102155.66;5095275;28;20048;-81
2023/05/03 00:20:34;;;;;;;8.35;2.50;;;;;;;7.78;100.00;102159.16;5107990;28;20461;-81
2023/05/03 00:23:01;;;;;;;6.75;2.38;;;;;;;7.73;100.00;102155.69;5107674;28;20051;-81
2023/05/03 00:25:27;;;;;;;11.65;2.58;;;;;;;7.56;100.00;102127.09;5113643;28;20131;-81
2023/05/03 00:27:54;;;;;;;8.35;2.47;;;;;;;7.22;100.00;102080.28;5110841;28;20047;-80
2023/05/03 00:30:21;;;;;;;7.30;2.00;;;;;;;7.59;100.00;102127.06;5113102;28;20382;-81
2023/05/03 00:32:47;;;;;;;9.20;3.50;;;;;;;7.65;100.00;102167.91;5113374;28;20046;-81
2023/05/03 00:35:14;;;;;;;9.93;2.70;;;;;;;7.60;100.00;102164.44;5103175;28;20236;-81
2023/05/03 00:37:41;;;;;;;7.72;2.80;;;;;;;7.57;100.00;102159.22;5116366;27;20382;-81
2023/05/03 00:40:09;;;;;;;10.80;3.13;;;;;;;7.37;100.00;102125.41;5114452;28;20051;-82
2023/05/03 00:42:35;;;;;;;6.75;2.38;;;;;;;7.41;100.00;102132.34;5105035;28;20040;-82
2023/05/03 00:45:04;;;;;;;10.35;2.80;;;;;;;7.54;100.00;102154.00;5113786;28;20447;-81
2023/05/03 00:47:32;;;;;;;9.20;2.70;;;;;;;7.63;100.00;102155.72;5112600;28;20092;-81
2023/05/03 00:49:59;;;;;;;6.95;2.53;;;;;;;7.61;100.00;102158.34;5105125;28;20055;-83
2023/05/03 00:52:28;;;;;;;10.45;2.70;;;;;;;7.45;100.00;102125.38;5110804;28;20450;-83
2023/05/03 00:54:56;;;;;;;8.93;2.70;;;;;;;7.57;100.00;102157.47;5107623;28;20375;-83
2023/05/03 00:57:25;;;;;;;8.15;2.67;;;;;;;7.32;100.00;102133.22;5092601;28;20052;-81
2023/05/03 00:59:52;;;;;;;11.30;2.70;;;;;;;7.68;100.00;102201.78;5106216;28;20048;-82
2023/05/03 01:02:20;;;;;;;8.13;2.70;;;;;;;7.55;100.00;102180.06;5103647;28;20044;-82
2023/05/03 01:04:47;;;;;;;10.73;2.80;;;;;;;7.41;100.00;102150.56;5105404;28;20044;-82
2023/05/03 01:07:39;;;;;;;11.73;2.70;;;;;;;7.69;100.00;102200.91;5103537;28;20417;-83
2023/05/03 01:10:20;;;;;;;8.65;2.28;;;;;;;7.58;100.00;102197.47;5112861;28;20035;-83
2023/05/03 01:12:53;;;;;;;9.38;2.40;;;;;;;7.59;100.00;102188.75;5112951;28;20161;-83
2023/05/03 01:15:47;;;;;;;9.15;2.58;;;;;;;7.62;100.00;102187.91;5113777;28;20043;-82
2023/05/03 01:18:21;;;;;;;8.57;2.22;;;;;;;7.30;100.00;102132.34;5112529;28;20079;-83
2023/05/03 01:20:49;;;;;;;7.38;2.55;;;;;;;7.50;100.00;102181.81;5108869;28;20409;-82
2023/05/03 01:23:39;;;;;;;10.60;2.63;;;;;;;7.59;100.00;102191.38;5108496;28;20408;-83
2023/05/03 01:26:19;;;;;;;8.43;2.30;;;;;;;7.25;100.00;102141.91;5113974;28;20152;-82
2023/05/03 01:28:46;;;;;;;7.65;2.35;;;;;;;7.29;100.00;102142.78;5114167;28;20074;-83
2023/05/03 01:31:33;;;;;;;9.38;2.50;;;;;;;7.63;100.00;102184.41;5106742;28;20047;-83
2023/05/03 01:34:17;;;;;;;8.55;2.40;;;;;;;7.11;100.00;102110.66;5111008;28;20108;-82
2023/05/03 01:36:44;;;;;;;7.47;2.50;;;;;;;7.31;100.00;102143.63;5111431;28;20043;-82
2023/05/03 01:39:18;;;;;;;11.73;2.85;;;;;;;7.45;100.00;102190.53;5113105;28;20043;-83
2023/05/03 01:41:48;;;;;;;7.97;2.58;;;;;;;7.12;100.00;102134.97;5111866;28;20044;-83
2023/05/03 01:44:16;;;;;;;6.32;2.13;;;;;;;7.07;100.00;102115.91;5111581;28;20040;-82
2023/05/03 01:46:44;;;;;;;10.82;2.85;;;;;;;7.38;100.00;102172.31;5113551;28;20496;-82
2023/05/03 01:49:11;;;;;;;8.45;3.17;;;;;;;7.23;100.00;102143.66;5113287;28;20043;-82
2023/05/03 01:51:38;;;;;;;11.07;2.70;;;;;;;6.99;100.00;102119.38;5112551;28;20605;-83
2023/05/03 01:54:05;;;;;;;6.68;2.10;;;;;;;7.04;100.00;102112.41;5098959;28;20044;-82
2023/05/03 01:56:33;;;;;;;8.98;2.70;;;;;;;7.10;100.00;102140.19;5108172;28;20051;-82
2023/05/03 01:59:00;;;;;;;9.32;2.85;;;;;;;7.02;100.00;102118.50;5109246;28;20048;-82
2023/05/03 02:01:27;;;;;;;11.23;2.90;;;;;;;6.98;100.00;102122.84;5112048;28;20397;-82
2023/05/03 02:03:54;;;;;;;10.70;2.78;;;;;;;7.23;100.00;102156.69;5111876;28;20404;-82
2023/05/03 02:06:20;;;;;;;9.80;2.60;;;;;;;6.84;100.00;102089.00;5113023;28;20062;-82
2023/05/03 02:08:47;;;;;;;10.70;2.55;;;;;;;7.35;100.00;102189.69;5111567;28;20079;-83
2023/05/03 02:11:14;;;;;;;7.30;2.42;;;;;;;7.28;100.00;102181.00;5119394;28;20044;-83
2023/05/03 02:13:40;;;;;;;7.85;2.20;;;;;;;7.01;100.00;102143.69;5109918;28;20035;-81
2023/05/03 02:16:08;;;;;;;10.07;2.47;;;;;;;6.98;100.00;102124.59;5113038;28;20054;-82
2023/05/03 02:18:35;;;;;;;9.20;2.58;;;;;;;6.92;100.00;102127.16;5109306;28;20055;-82
2023/05/03 02:21:03;;;;;;;8.95;2.35;;;;;;;7.03;100.00;102154.09;5111499;28;20409;-82
2023/05/03 02:23:30;;;;;;;7.93;2.42;;;;;;;7.11;100.00;102154.09;5114138;28;20047;-82
2023/05/03 02:25:57;;;;;;;7.70;2.13;;;;;;;6.81;100.00;102091.59;5115607;28;20054;-83
2023/05/03 02:28:23;;;;;;;11.13;2.40;;;;;;;6.81;100.00;102101.13;5112550;28;20047;-82
2023/05/03 02:30:50;;;;;;;9.27;2.92;;;;;;;6.99;100.00;102124.59;5116784;28;20057;-81
2023/05/03 02:33:17;;;;;;;8.35;2.65;;;;;;;7.04;100.00;102124.56;5111728;28;20047;-83
2023/05/03 02:35:44;;;;;;;10.07;2.40;;;;;;;7.26;100.00;102150.59;5116490;28;20035;-82
2023/05/03 02:38:10;;;;;;;8.35;2.30;;;;;;;6.92;100.00;102093.31;5116871;27;20054;-82
2023/05/03 02:40:37;;;;;;;9.13;2.35;;;;;;;6.99;100.00;102097.66;5116346;28;20047;-82
2023/05/03 02:43:04;;;;;;;6.00;2.08;;;;;;;7.18;100.00;102115.00;5115502;28;20127;-82
2023/05/03 02:45:31;;;;;;;6.20;2.22;;;;;;;6.94;100.00;102079.44;5117071;28;20548;-82
2023/05/03 02:47:58;;;;;;;12.88;2.78;;;;;;;7.13;100.00;102103.72;5115076;28;20055;-83
2023/05/03 02:50:25;;;;;;;7.53;2.22;;;;;;;7.46;100.00;102158.41;5112447;28;20073;-82
2023/05/03 02:52:51;;;;;;;7.93;2.35;;;;;;;6.99;100.00;102074.22;5113505;28;20040;-82
2023/05/03 02:55:18;;;;;;;7.63;2.65;;;;;;;6.86;100.00;102059.50;5111339;28;20050;-82
2023/05/03 02:57:45;;;;;;;7.50;2.10;;;;;;;6.98;100.00;102075.09;5098902;28;20062;-82
2023/05/03 03:00:14;;;;;;;5.25;1.92;;;;;;;7.01;100.00;102104.63;5110905;28;20081;-82
2023/05/03 03:02:40;;;;;;;4.05;1.70;;;;;;;7.12;100.00;102127.16;5107176;28;20044;-82
2023/05/03 03:05:08;;;;;;;8.43;2.80;;;;;;;6.59;100.00;102077.72;5111566;28;20469;-82
2023/05/03 03:07:37;;;;;;;11.30;2.40;;;;;;;7.05;100.00;102147.16;5114057;28;20040;-82
2023/05/03 03:10:05;;;;;;;9.68;2.80;;;;;;;6.88;100.00;102149.75;5106688;28;20043;-82
2023/05/03 03:12:37;;;;;;;6.57;2.20;;;;;;;6.70;100.00;102134.97;5105055;28;20048;-83
2023/05/03 03:15:04;;;;;;;8.93;2.17;;;;;;;6.37;100.00;102078.56;5114673;28;20052;-82
2023/05/03 03:17:30;;;;;;;10.98;2.70;;;;;;;6.21;100.00;102064.66;5114234;28;20047;-82
2023/05/03 03:19:57;;;;;;;4.95;1.67;;;;;;;6.61;100.00;102099.41;5111381;28;20496;-83
2023/05/03 03:22:24;;;;;;;7.30;2.35;;;;;;;6.41;100.00;102067.28;5111769;28;20036;-82
2023/05/03 03:24:51;;;;;;;7.75;2.60;;;;;;;6.73;100.00;102142.78;5113227;28;20076;-83
2023/05/03 03:27:18;;;;;;;9.02;2.88;;;;;;;6.33;100.00;102106.31;5114493;28;20052;-82
2023/05/03 03:29:44;;;;;;;7.55;2.33;;;;;;;6.39;100.00;102089.81;5100000;28;20039;-83
2023/05/03 03:32:11;;;;;;;7.15;1.90;;;;;;;6.45;100.00;102100.25;5112429;28;20123;-82
2023/05/03 03:34:38;;;;;;;8.38;2.47;;;;;;;6.62;100.00;102108.97;5114329;28;20122;-82
2023/05/03 03:37:05;;;;;;;7.07;2.08;;;;;;;6.55;100.00;102077.69;5115241;28;20165;-82
2023/05/03 03:39:31;;;;;;;8.25;2.00;;;;;;;6.57;100.00;102089.88;5114569;28;20058;-83
2023/05/03 03:41:59;;;;;;;8.80;2.40;;;;;;;6.65;100.00;102106.34;5109485;28;20040;-81
2023/05/03 03:44:25;;;;;;;8.52;2.28;;;;;;;6.56;100.00;102071.63;5108896;28;20411;-81
2023/05/03 03:46:52;;;;;;;4.10;1.50;;;;;;;6.98;100.00;102125.44;5110900;28;20048;-80
2023/05/03 03:49:19;;;;;;;6.18;2.03;;;;;;;6.55;100.00;102060.38;5093317;28;20052;-81
2023/05/03 03:51:46;;;;;;;6.97;1.98;;;;;;;6.76;100.00;102100.28;5108158;28;20056;-81
2023/05/03 03:54:13;;;;;;;6.13;2.20;;;;;;;6.85;100.00;102118.47;5108496;28;20050;-80
2023/05/03 03:56:39;;;;;;;11.77;2.78;;;;;;;6.61;100.00;102068.16;5112464;28;20055;-82
2023/05/03 03:59:06;;;;;;;7.55;2.28;;;;;;;6.74;100.00;102075.97;5106684;28;20458;-81
2023/05/03 04:01:33;;;;;;;6.40;2.50;;;;;;;6.79;100.00;102092.47;5120172;27;20058;-82
2023/05/03 04:04:00;;;;;;;9.63;2.33;;;;;;;6.89;100.00;102096.81;5111626;28;20075;-82
2023/05/03 04:06:27;;;;;;;7.55;2.55;;;;;;;6.77;100.00;102075.97;5115170;28;20054;-82
2023/05/03 04:08:54;;;;;;;6.03;2.00;;;;;;;6.86;100.00;102088.13;5115397;28;20066;-83
2023/05/03 04:11:21;;;;;;;4.20;1.60;;;;;;;6.90;100.00;102114.16;5105010;28;20474;-82
2023/05/03 04:13:48;;;;;;;9.10;2.25;;;;;;;6.81;100.00;102111.56;5112055;28;20076;-82
2023/05/03 04:16:15;;;;;;;7.90;2.13;;;;;;;6.75;100.00;102089.00;5109857;28;20040;-82
2023/05/03 04:18:42;;;;;;;7.32;2.08;;;;;;;7.03;100.00;102131.50;5106740;28;20051;-82
2023/05/03 04:21:09;;;;;;;7.47;1.98;;;;;;;7.01;100.00;102108.94;5094822;28;20470;-82
2023/05/03 04:23:36;;;;;;;9.02;2.35;;;;;;;6.71;100.00;102074.25;5105274;28;20036;-82
2023/05/03 04:26:03;;;;;;;6.70;2.30;;;;;;;7.26;100.00;102154.09;5113701;28;20056;-82
2023/05/03 04:28:31;;;;;;;4.97;1.77;;;;;;;6.86;100.00;102062.97;5113149;28;20448;-81
2023/05/03 04:30:58;;;;;;;6.03;1.95;;;;;;;7.30;100.00;102124.53;5109383;28;20040;-82
2023/05/03 04:33:26;;;;;;;8.35;2.40;;;;;;;7.12;100.00;102088.09;5111318;28;20371;-82
2023/05/03 04:35:52;;;;;;;9.20;2.63;;;;;;;7.23;100.00;102104.56;5114534;28;20050;-82
2023/05/03 04:38:19;;;;;;;7.43;2.63;;;;;;;7.20;100.00;102084.59;5101462;28;20040;-82
2023/05/03 04:40:46;;;;;;;7.40;2.35;;;;;;;7.46;100.00;102120.16;5114128;28;20055;-82
2023/05/03 04:43:13;;;;;;;9.25;2.28;;;;;;;7.62;100.00;102140.97;5109430;28;20055;-81
2023/05/03 04:45:40;;;;;;;7.30;2.50;;;;;;;7.63;100.00;102137.47;5103220;28;20051;-82
2023/05/03 04:48:08;;;;;;;10.48;2.65;;;;;;;7.66;100.00;102130.53;5099353;28;20044;-82
2023/05/03 04:50:34;;;;;;;5.97;2.30;;;;;;;7.86;100.00;102150.44;5107506;28;20055;-82
2023/05/03 04:53:01;;;;;;;10.40;2.30;;;;;;;7.81;100.00;102137.44;5103691;28;20097;-83
2023/05/03 04:55:28;;;;;;;11.38;3.15;;;;;;;7.49;100.00;102074.97;5102074;28;20473;-82
2023/05/03 04:57:55;;;;;;;16.02;3.83;;;;;;;7.91;100.00;102153.91;5111331;28;20071;-83
2023/05/03 05:00:22;;;;;;;7.53;2.40;;;;;;;7.99;100.00;102153.00;5112269;28;20052;-82
2023/05/03 05:02:49;;;;;;;9.85;2.60;;;;;;;7.66;100.00;102081.00;5111385;28;20043;-82
2023/05/03 05:05:16;;;;;;;6.68;2.08;;;;;;;7.78;100.00;102080.94;5112012;28;20050;-82
2023/05/03 05:07:45;;;;;;;7.65;2.42;;;;;;;8.04;100.00;102112.97;5102711;28;20134;-83
2023/05/03 05:10:13;;;;;;;7.00;2.30;;;;;;;8.02;100.00;102088.66;5105285;28;20044;-82
2023/05/03 05:12:40;;;;;;;7.60;2.47;;;;;;;8.19;100.00;102115.50;5105043;28;20040;-83
2023/05/03 05:15:08;;;;;;;8.82;2.30;;;;;;;8.48;100.00;102151.03;5101702;28;20070;-82
2023/05/03 05:17:35;;;;;;;8.77;2.75;;;;;;;8.30;100.00;102112.84;5094858;28;20052;-82
2023/05/03 05:20:03;;;;;;;21.33;3.65;;;;;;;8.74;100.00;102174.38;5109814;28;20424;-82
2023/05/03 05:22:31;;;;;;;9.60;3.17;;;;;;;8.22;100.00;102123.34;5110897;28;20138;-80
2023/05/03 05:24:57;;;;;;;6.85;2.47;;;;;;;8.24;100.00;102107.66;5110282;28;20496;-81
2023/05/03 05:27:24;;;;;;;8.73;3.13;;;;;;;8.33;100.00;102097.16;5111442;28;20058;-82
2023/05/03 05:29:52;;;;;;;8.63;3.10;;;;;;;8.44;100.00;102107.56;5108662;28;20465;-82
2023/05/03 05:32:19;;;;;;;8.98;3.17;;;;;;;8.55;100.00;102121.41;5111459;28;20043;-83
2023/05/03 05:34:51;;;;;;;9.27;3.20;;;;;;;8.63;100.00;102122.22;5112547;28;20062;-83
2023/05/03 05:37:18;;;;;;;11.70;3.50;;;;;;;8.54;100.00;102102.28;5102617;28;20048;-82
2023/05/03 05:39:45;;;;;;;18.42;3.15;;;;;;;8.64;100.00;102113.53;5104822;28;20781;-81
2023/05/03 05:42:12;;;;;;;9.18;3.60;;;;;;;8.64;100.00;102120.47;5111897;28;20074;-81
2023/05/03 05:44:38;;;;;;;11.43;3.47;;;;;;;8.77;100.00;102129.09;5103943;28;20044;-82
2023/05/03 05:47:05;;;;;;;13.98;3.78;;;;;;;8.87;100.00;102136.84;5105922;28;20056;-83
2023/05/03 05:49:34;;;;;;;12.25;4.20;;;;;;;8.93;100.00;102151.59;5098333;28;20389;-81
2023/05/03 05:52:01;;;;;;;12.13;3.25;;;;;;;9.15;100.00;102172.31;5104706;28;20075;-82
2023/05/03 05:54:28;;;;;;;6.45;2.33;;;;;;;8.85;100.00;102103.78;5104767;28;20122;-82
2023/05/03 05:56:56;;;;;;;9.38;3.15;;;;;;;8.89;100.00;102126.41;5114826;28;20130;-83
2023/05/03 05:59:23;;;;;;;11.88;3.13;;;;;;;9.08;100.00;102140.13;5103316;28;20052;-82
2023/05/03 06:01:50;;;;;;;13.80;3.30;;;;;;;9.44;100.00;102177.28;5105058;28;20047;-81
2023/05/03 06:04:17;;;;;;;11.02;3.28;;;;;;;9.39;100.00;102145.09;5114742;28;20052;-80
2023/05/03 06:06:43;;;;;;;9.63;3.03;;;;;;;9.10;100.00;102131.44;5112432;28;20428;-85
2023/05/03 06:09:10;;;;;;;10.05;3.08;;;;;;;9.04;100.00;102105.34;5103433;28;20496;-85
2023/05/03 06:11:50;;;;;;;9.40;3.20;;;;;;;8.95;100.00;102100.19;5099647;28;20044;-85
2023/05/03 06:14:19;;;;;;;13.68;3.85;;;;;;;8.89;100.00;102136.84;5106157;28;20044;-85
2023/05/03 06:16:46;;;;;;;13.27;3.47;;;;;;;8.68;100.00;102096.94;5113114;28;20134;-84
2023/05/03 06:19:13;;;;;;;12.77;4.32;;;;;;;9.19;100.00;102151.38;5111611;28;20135;-84
2023/05/03 06:21:39;;;;;;;6.65;2.50;;;;;;;8.79;100.00;102070.75;5114098;28;20503;-83
2023/05/03 06:24:06;;;;;;;16.23;4.25;;;;;;;9.00;100.00;102134.13;5112414;28;20389;-85
2023/05/03 06:26:33;;;;;;;14.65;2.92;;;;;;;9.24;100.00;102099.06;5124921;27;20112;-85
2023/05/03 06:29:02;;;;;;;9.25;3.25;;;;;;;9.47;100.00;102145.88;5111207;28;20044;-83
2023/05/03 06:31:29;;;;;;;11.20;3.35;;;;;;;9.49;100.00;102136.25;5108932;28;20470;-84
2023/05/03 06:33:56;;;;;;;17.17;3.45;;;;;;;9.47;100.00;102119.72;5115219;28;20043;-84
2023/05/03 06:36:23;;;;;;;11.73;3.72;;;;;;;9.64;100.00;102148.31;5117482;28;20485;-84
2023/05/03 06:38:50;;;;;;;21.38;5.05;;;;;;;9.29;100.00;102112.94;5101371;28;20055;-84
2023/05/03 06:41:17;;;;;;;13.40;3.80;;;;;;;8.90;100.00;102063.66;5108487;27;20044;-84
2023/05/03 06:43:44;;;;;;;10.32;3.83;;;;;;;9.55;100.00;102137.97;5107818;28;20052;-84
2023/05/03 06:46:11;;;;;;;12.18;3.03;;;;;;;9.73;100.00;102126.41;5106092;28;20040;-84
2023/05/03 06:48:38;;;;;;;10.80;3.42;;;;;;;9.35;100.00;102073.69;5115310;28;20050;-84
2023/05/03 06:51:05;;;;;;;13.13;2.72;;;;;;;9.72;100.00;102129.91;5114054;28;20051;-84
2023/05/03 06:53:32;;;;;;;15.43;4.38;;;;;;;9.80;100.00;102131.53;5109842;28;20048;-85
2023/05/03 06:55:59;;;;;;;12.55;3.85;;;;;;;9.63;100.00;102109.94;5109028;28;20504;-85
2023/05/03 06:58:26;;;;;;;13.60;4.00;;;;;;;9.92;100.00;102142.75;5102075;28;20055;-85
2023/05/03 07:00:52;;;;;;;11.07;4.07;;;;;;;10.01;100.00;102171.44;5114032;28;20055;-85
2023/05/03 07:03:19;;;;;;;17.75;3.47;;;;;;;9.67;100.00;102119.50;5115364;28;20389;-84
2023/05/03 07:05:47;;;;;;;14.10;3.95;;;;;;;9.57;100.00;102086.50;5104597;28;20473;-85
2023/05/03 07:08:13;;;;;;;12.15;3.60;;;;;;;9.50;100.00;102107.47;5114057;28;20118;-85
2023/05/03 07:10:40;;;;;;;17.63;3.45;;;;;;;9.27;100.00;102080.72;5114235;27;20625;-84
2023/05/03 07:13:07;;;;;;;20.13;4.35;;;;;;;9.38;100.00;102098.91;5114242;28;20052;-84
2023/05/03 07:15:34;;;;;;;10.85;3.67;;;;;;;9.76;100.00;102150.78;5102759;28;20055;-85
2023/05/03 07:18:02;;;;;;;15.65;3.30;;;;;;;9.82;100.00;102155.94;5115040;28;21941;-85
2023/05/03 07:20:29;;;;;;;10.80;2.95;;;;;;;9.45;100.00;102092.72;5114457;28;20130;-83
2023/05/03 07:22:57;;;;;;;21.77;4.82;;;;;;;9.46;100.00;102089.25;5115081;28;20049;-84
2023/05/03 07:25:23;;;;;;;14.80;3.60;;;;;;;9.61;100.00;102096.88;5100362;28;20064;-84
2023/05/03 07:27:50;;;;;;;13.38;3.00;;;;;;;9.38;100.00;102078.00;5114501;28;20086;-83
2023/05/03 07:30:17;;;;;;;15.35;3.58;;;;;;;9.38;100.00;102088.47;5109111;28;20044;-84
2023/05/03 07:32:44;;;;;;;13.75;3.53;;;;;;;9.66;100.00;102087.25;5108694;28;20048;-84
2023/05/03 07:35:11;;;;;;;9.93;3.03;;;;;;;9.85;100.00;102108.81;5104824;28;20039;-84
2023/05/03 07:37:38;;;;;;;12.30;2.92;;;;;;;10.24;100.00;102119.63;5113733;28;20040;-84
2023/05/03 07:40:06;;;;;;;9.63;2.75;;;;;;;10.01;100.00;102121.72;5114156;28;20130;-83
2023/05/03 07:42:32;;;;;;;13.07;4.10;;;;;;;10.01;100.00;102103.38;5109077;28;20058;-85
2023/05/03 07:45:00;;;;;;;19.85;4.03;;;;;;;10.08;100.00;102133.81;5115848;28;20575;-84
2023/05/03 07:47:27;;;;;;;14.07;3.40;;;;;;;9.98;100.00;102121.75;5115299;27;20059;-85
2023/05/03 07:49:54;;;;;;;13.95;3.47;;;;;;;10.48;100.00;102127.19;5111561;28;20082;-85
2023/05/03 07:52:20;;;;;;;13.45;4.30;;;;;;;10.07;100.00;102114.66;5110765;28;20043;-85
2023/05/03 07:54:47;;;;;;;13.18;3.35;;;;;;;10.18;100.00;102108.38;5113980;28;20070;-86
2023/05/03 07:57:15;;;;;;;13.93;4.00;;;;;;;10.42;100.00;102156.94;5113769;28;20055;-85
2023/05/03 07:59:42;;;;;;;11.98;4.07;;;;;;;10.11;100.00;102096.25;5100745;28;20048;-83
2023/05/03 08:02:09;;;;;;;9.45;3.85;;;;;;;10.37;100.00;102127.34;5112322;28;20048;-83
2023/05/03 08:04:35;;;;;;;13.45;3.88;;;;;;;10.36;100.00;102133.50;5114355;28;20055;-82
2023/05/03 08:07:03;;;;;;;12.85;3.30;;;;;;;10.12;100.00;102106.72;5114641;28;20051;-81
2023/05/03 08:09:30;;;;;;;14.52;3.40;;;;;;;10.29;100.00;102114.34;5113668;28;20051;-82
2023/05/03 08:11:57;;;;;;;14.20;3.22;;;;;;;10.19;100.00;102131.06;5105080;28;20048;-82
2023/05/03 08:14:23;;;;;;;15.75;3.60;;;;;;;10.34;100.00;102111.66;5114744;28;20461;-82
2023/05/03 08:16:50;;;;;;;12.82;3.50;;;;;;;10.32;100.00;102116.06;5108232;28;20093;-83
2023/05/03 08:19:17;;;;;;;10.02;3.30;;;;;;;10.36;100.00;102136.09;5106663;28;20051;-83
2023/05/03 08:21:45;;;;;;;14.27;4.82;;;;;;;10.26;100.00;102146.66;5122142;27;20047;-82
2023/05/03 08:24:15;;;;;;;18.98;3.30;;;;;;;10.52;100.00;102163.78;5110934;28;20043;-84
2023/05/03 08:26:43;;;;;;;16.55;4.38;;;;;;;10.46;100.00;102161.25;5112745;28;20469;-82
2023/05/03 08:29:10;;;;;;;14.30;3.40;;;;;;;10.55;100.00;102140.19;5099973;27;20431;-83
2023/05/03 08:31:37;;;;;;;9.05;3.13;;;;;;;10.61;100.00;102110.41;5105490;28;20048;-82
2023/05/03 08:34:05;;;;;;;10.25;3.03;;;;;;;10.50;100.00;102118.44;5110582;28;20075;-83
2023/05/03 08:36:34;;;;;;;12.57;3.72;;;;;;;10.95;100.00;102178.00;5113604;28;20043;-83
2023/05/03 08:39:05;;;;;;;11.80;3.70;;;;;;;10.71;100.00;102142.53;5113114;28;20062;-82
2023/05/03 08:41:32;;;;;;;16.77;2.97;;;;;;;10.70;100.00;102164.41;5112112;28;20043;-82
2023/05/03 08:44:00;;;;;;;13.23;3.50;;;;;;;10.78;100.00;102157.28;5101160;28;20043;-82
2023/05/03 08:46:28;;;;;;;15.85;3.33;;;;;;;10.94;100.00;102182.38;5099165;28;20050;-82
2023/05/03 08:48:55;;;;;;;13.32;3.30;;;;;;;10.73;100.00;102135.53;5113923;28;20051;-83
2023/05/03 08:51:23;;;;;;;15.30;3.33;;;;;;;11.17;100.00;102175.84;5113529;28;20163;-83
2023/05/03 08:53:50;;;;;;;19.95;4.28;;;;;;;10.97;100.00;102181.44;5113406;28;20044;-83
2023/05/03 08:56:32;;;;;;;15.75;3.85;;;;;;;10.78;100.00;102113.63;5112098;28;20477;-83
2023/05/03 08:59:06;;;;;;;14.45;2.92;;;;;;;11.09;100.00;102162.91;5103962;28;20047;-83
2023/05/03 09:01:36;;;;;;;18.13;4.13;;;;;;;11.17;100.00;102179.38;5104518;28;20047;-82
2023/05/03 09:04:03;;;;;;;10.90;3.13;;;;;;;10.90;100.00;102117.78;5112059;28;20079;-82
2023/05/03 09:06:31;;;;;;;14.57;3.40;;;;;;;10.96;100.00;102129.91;5095860;28;20558;-84
2023/05/03 09:08:59;;;;;;;15.13;4.45;;;;;;;11.30;100.00;102142.44;5111379;28;20047;-83
2023/05/03 09:11:28;;;;;;;13.80;3.67;;;;;;;10.99;100.00;102146.44;5108677;28;20064;-84
2023/05/03 09:14:10;;;;;;;16.50;3.72;;;;;;;11.46;100.00;102187.63;5108065;28;20066;-83
2023/05/03 09:16:39;;;;;;;17.48;4.20;;;;;;;11.42;100.00;102178.06;5112408;28;20055;-83
2023/05/03 09:19:11;;;;;;;15.70;3.72;;;;;;;11.26;100.00;102122.41;5114197;28;20470;-83
2023/05/03 09:21:40;;;;;;;15.70;3.70;;;;;;;11.52;100.00;102177.00;5105284;28;20058;-83
2023/05/03 09:24:18;;;;;;;11.20;3.20;;;;;;;11.46;100.00;102180.59;5114518;28;20059;-83
2023/05/03 09:26:47;;;;;;;23.67;5.07;;;;;;;11.38;100.00;102183.38;5113294;28;20059;-83
2023/05/03 09:29:35;;;;;;;12.98;3.83;;;;;;;11.58;100.00;102159.41;5112448;28;20374;-83
2023/05/03 09:32:04;;;;;;;12.57;3.70;;;;;;;11.24;100.00;102116.31;5111195;28;20451;-84
2023/05/03 09:34:33;;;;;;;11.38;3.67;;;;;;;11.48;100.00;102162.22;5112169;28;20370;-84
2023/05/03 09:37:00;;;;;;;12.27;3.35;;;;;;;11.68;100.00;102186.31;5113307;28;20051;-85
2023/05/03 09:39:26;;;;;;;11.02;3.10;;;;;;;11.66;100.00;102151.38;5098539;28;20066;-83
2023/05/03 09:41:53;;;;;;;13.15;2.95;;;;;;;11.81;100.00;102137.09;5109266;28;20044;-83
2023/05/03 09:44:40;;;;;;;17.38;5.07;;;;;;;11.86;100.00;102156.19;5108677;28;20045;-83
2023/05/03 09:47:07;;;;;;;20.10;4.32;;;;;;;11.75;100.00;102147.69;5103198;28;20443;-83
2023/05/03 09:49:35;;;;;;;11.27;3.60;;;;;;;12.06;100.00;102134.84;5110478;28;20056;-83
2023/05/03 09:52:03;;;;;;;16.63;4.25;;;;;;;12.18;100.00;102140.72;5108429;28;20052;-83
2023/05/03 09:54:35;;;;;;;20.35;4.68;;;;;;;12.31;100.00;102150.91;5109165;28;20044;-83
2023/05/03 09:57:04;;;;;;;17.70;5.10;;;;;;;12.07;100.00;102148.81;5099605;28;20050;-83
2023/05/03 09:59:35;;;;;;;13.65;4.30;;;;;;;12.03;100.00;102121.78;5101537;28;20048;-84
2023/05/03 10:02:06;;;;;;;13.55;4.05;;;;;;;12.85;100.00;102182.97;5110946;28;20047;-83
2023/05/03 10:04:46;;;;;;;15.68;4.50;;;;;;;12.86;100.00;102185.56;5112703;28;20082;-84
2023/05/03 10:07:17;;;;;;;17.67;4.28;;;;;;;12.73;100.00;102179.75;5107401;28;20052;-84
2023/05/03 10:09:46;;;;;;;14.52;4.43;;;;;;;12.41;100.00;102114.81;5110812;28;20055;-83
2023/05/03 10:12:16;;;;;;;18.60;5.28;;;;;;;12.49;100.00;102175.91;5107323;28;20044;-83
2023/05/03 10:14:45;;;;;;;12.07;4.03;;;;;;;12.84;100.00;102187.38;5111645;28;20123;-84
2023/05/03 10:17:30;;;;;;;15.18;4.68;;;;;;;12.08;100.00;102146.16;5113189;28;20048;-83
2023/05/03 10:20:38;;;;;;;15.35;4.70;;;;;;;12.76;100.00;102194.56;5111970;28;20438;-83
2023/05/03 10:23:10;;;;;;;15.40;3.65;;;;;;;12.57;100.00;102190.63;5106385;28;20477;-83
2023/05/03 10:25:39;;;;;;;16.45;4.70;;;;;;;12.47;100.00;102198.72;5113477;28;20435;-84
2023/05/03 10:28:07;;;;;;;20.20;5.43;;;;;;;12.34;100.00;102185.00;5111889;28;20660;-84
2023/05/03 10:30:39;;;;;;;13.55;4.85;;;;;;;12.23;100.00;102146.72;5112895;28;20043;-83
2023/05/03 10:33:08;;;;;;;18.67;4.25;;;;;;;13.04;100.00;102192.13;5110908;28;20051;-84
2023/05/03 10:35:38;;;;;;;17.58;4.65;;;;;;;12.42;100.00;102124.41;5112292;28;20058;-84
2023/05/03 10:38:23;;;;;;;19.80;5.10;;;;;;;12.90;100.00;102144.28;5099844;28;20409;-84
2023/05/03 10:40:50;;;;;;;15.63;4.38;;;;;;;13.30;100.00;102152.03;5110889;28;20063;-84
2023/05/03 10:43:32;;;;;;;17.00;5.47;;;;;;;12.87;100.00;102192.56;5115320;28;20039;-85
2023/05/03 10:46:00;;;;;;;14.65;5.15;;;;;;;12.88;100.00;102194.25;5114560;28;20040;-83
2023/05/03 10:48:27;;;;;;;15.48;4.70;;;;;;;12.75;100.00;102174.44;5113680;28;20503;-83
2023/05/03 10:50:55;;;;;;;15.77;3.90;;;;;;;13.08;100.00;102190.28;5115379;28;20048;-84
2023/05/03 10:53:36;;;;;;;18.60;5.60;;;;;;;12.81;100.00;102187.44;5110668;28;20059;-84
2023/05/03 10:56:07;;;;;;;14.30;5.10;;;;;;;12.88;100.00;102177.63;5107546;28;20137;-84
2023/05/03 10:58:47;;;;;;;17.00;4.82;;;;;;;12.56;100.00;102160.03;5116462;28;20048;-84
2023/05/03 11:01:16;;;;;;;16.40;4.65;;;;;;;12.56;100.00;102187.16;5103407;28;20087;-84
2023/05/03 11:03:49;;;;;;;12.95;5.22;;;;;;;12.84;100.00;102183.88;5110277;28;20533;-84
2023/05/03 11:06:35;;;;;;;14.95;4.93;;;;;;;12.99;100.00;102130.06;5112429;28;20048;-84
2023/05/03 11:09:05;;;;;;;16.85;5.75;;;;;;;12.79;100.00;102151.59;5113949;28;20058;-84
2023/05/03 11:11:34;;;;;;;22.08;5.25;;;;;;;13.12;100.00;102184.06;5114196;28;20047;-84
2023/05/03 11:14:00;;;;;;;18.15;4.35;;;;;;;13.50;100.00;102150.66;5115187;28;20122;-84
2023/05/03 11:16:28;;;;;;;17.60;4.25;;;;;;;13.57;100.00;102139.06;5110529;28;20479;-84
2023/05/03 11:18:55;;;;;;;18.45;5.70;;;;;;;12.97;100.00;102106.44;5096648;28;20150;-84
2023/05/03 11:21:22;;;;;;;19.08;6.28;;;;;;;12.86;100.00;102087.44;5102983;28;20100;-83
2023/05/03 11:23:49;;;;;;;17.58;5.00;;;;;;;13.39;100.00;102127.28;5114652;28;20055;-84